Latest Weather Observations for Merimbula

IDN60801

Issued at 4:05 pm EST Saturday 2 August 2014 (issued every 30 minutes, with the page automatically refreshed every 10 minutes)

About weather observations | Map of weather stations | Latest weather observations for NSW | Other Formats
Station Details ID: 069147 Name: MERIMBULA AIRPORT AWS Lat: -36.91 Lon: 149.90 Height: 1.5 m
Data from the previous 72 hours. | See also: Recent months at Merimbula
Date/Time
EST
Temp
°C
App
Temp
°C
Dew
Point
Rel
Hum
%
Delta-T
°C
Wind Press
QNH
hPa
Press
MSL
hPa
Rain
since 9 am
mm
Dir
 
Spd
km/h
Gust
km/h
Spd
kts
Gust
kts
02/04:00pm 12.4 8.1 1.1 46 4.7 WSW 13 19 7 10 1028.2 - 0.0
02/03:30pm 12.5 7.5 1.5 47 4.6 SW 17 28 9 15 1027.6 - 0.0
02/03:00pm 12.6 8.4 1.6 47 4.7 WSW 13 30 7 16 1027.4 1027.4 0.0
02/02:46pm 11.7 3.5 0.2 45 4.7 SSW 33 52 18 28 1027.4 - 0.0
02/02:45pm 11.8 2.8 0.3 45 4.7 SSW 37 52 20 28 1027.4 - 0.0
02/02:30pm 13.8 9.5 0.8 41 5.5 SW 13 24 7 13 1027.0 - 0.0
02/02:00pm 13.3 7.9 1.3 44 5.1 WSW 19 32 10 17 1026.8 - 0.0
02/01:30pm 13.6 8.0 1.3 43 5.3 WSW 20 32 11 17 1026.5 - 0.0
02/01:00pm 14.0 8.9 1.0 41 5.6 SSW 17 30 9 16 1026.5 - 0.0
02/12:30pm 13.4 8.0 1.1 43 5.2 SW 19 28 10 15 1026.5 - 0.0
02/12:00pm 13.4 8.5 2.3 47 4.8 WSW 17 32 9 17 1026.7 1026.7 0.0
02/11:30am 12.8 7.4 2.6 50 4.5 WSW 20 35 11 19 1026.7 - 0.0
02/11:00am 11.9 6.2 2.9 54 3.9 WSW 22 35 12 19 1026.4 - 0.0
02/10:30am 11.5 5.4 2.5 54 3.9 SW 24 37 13 20 1026.1 - 0.0
02/10:00am 11.3 5.9 2.3 54 3.9 WSW 20 37 11 20 1025.6 - 0.0
02/09:30am 10.7 4.9 2.5 57 3.5 WSW 22 35 12 19 1024.9 - 0.0
02/09:00am 9.9 4.7 2.5 60 3.1 WSW 19 26 10 14 1024.7 1024.7 1.4
02/08:30am 9.4 5.0 2.7 63 2.8 WSW 15 28 8 15 1024.5 - 1.4
02/08:00am 8.6 3.8 2.8 67 2.5 WSW 17 35 9 19 1024.0 - 1.4
02/07:30am 8.0 3.6 2.9 70 2.1 SW 15 28 8 15 1023.7 - 1.4
02/07:00am 7.7 2.9 2.4 69 2.2 SW 17 30 9 16 1022.6 - 1.4
02/06:30am 7.4 2.2 2.7 72 2.0 SW 19 32 10 17 1021.8 - 1.4
02/06:00am 7.1 2.3 2.4 72 1.9 SW 17 28 9 15 1021.1 1021.1 1.4
02/05:30am 7.3 1.6 2.6 72 2.0 WSW 22 35 12 19 1020.2 - 1.4
02/05:00am 7.0 2.6 2.5 73 1.9 SW 15 22 8 12 1019.9 - 1.4
02/04:30am 7.2 2.0 2.7 73 1.9 WSW 19 30 10 16 1019.4 - 1.4
02/04:00am 6.9 2.2 3.3 78 1.5 SW 17 28 9 15 1018.5 - 1.4
02/03:30am 6.3 2.4 3.5 82 1.2 WSW 13 22 7 12 1018.0 - 1.4
02/03:00am 6.5 0.2 3.7 82 1.2 WSW 26 43 14 23 1017.7 1017.7 1.2
02/02:30am 7.0 0.7 3.6 79 1.4 WSW 26 43 14 23 1017.3 - 0.4
02/02:23am 7.0 0.3 3.4 78 1.5 WSW 28 48 15 26 1017.0 - 0.4
02/02:00am 7.7 1.8 4.1 78 1.6 SW 24 43 13 23 1016.9 - 0.0
02/01:30am 9.0 1.2 1.7 60 3.0 WSW 32 54 17 29 1015.5 - 0.0
02/01:10am 9.9 2.3 0.8 53 3.7 SW 30 50 16 27 1014.9 - 0.0
02/01:00am 9.1 3.5 0.0 53 3.6 W 19 30 10 16 1014.3 - 0.0
02/12:30am 8.8 2.6 -0.2 53 3.5 W 22 39 12 21 1013.9 - 0.0
02/12:00am 8.9 2.3 -0.4 52 3.7 W 24 41 13 22 1013.4 1013.4 0.0
 
Date/Time
EST
Temp
°C
App
Temp
°C
Dew
Point
Rel
Hum
%
Delta-T
°C
Wind Press
QNH
hPa
Press
MSL
hPa
Rain
since 9 am
mm
Dir
 
Spd
km/h
Gust
km/h
Spd
kts
Gust
kts
01/11:30pm 8.6 2.8 -0.4 53 3.5 W 20 35 11 19 1012.9 - 0.0
01/11:00pm 8.7 3.0 -0.6 52 3.6 W 19 37 10 20 1013.2 - 0.0
01/10:30pm 8.7 3.7 -1.1 50 3.8 W 15 20 8 11 1012.7 - 0.0
01/10:00pm 9.1 3.3 -1.3 48 4.0 W 19 33 10 18 1012.5 - 0.0
01/09:30pm 9.0 3.7 -0.6 51 3.8 W 17 30 9 16 1012.1 - 0.0
01/09:00pm 9.5 3.8 -0.9 48 4.1 W 19 24 10 13 1011.5 1011.5 0.0
01/08:30pm 9.7 3.4 -1.1 47 4.2 W 22 30 12 16 1011.0 - 0.0
01/08:00pm 10.0 4.2 -1.7 44 4.5 WSW 19 33 10 18 1010.7 - 0.0
01/07:30pm 10.4 4.0 -1.9 42 4.7 WSW 22 37 12 20 1010.1 - 0.0
01/07:00pm 10.6 4.1 -2.1 41 4.9 W 22 37 12 20 1009.4 - 0.0
01/06:30pm 10.2 5.8 -2.4 41 4.8 W 11 17 6 9 1008.6 - 0.0
01/06:00pm 11.5 5.5 -2.7 37 5.5 W 19 28 10 15 1007.7 1007.7 0.0
01/05:30pm 12.1 5.5 -0.7 41 5.2 NW 24 37 13 20 1006.8 - 0.0
01/05:00pm 12.6 6.0 -3.2 33 6.1 W 22 41 12 22 1006.3 - 0.0
01/04:30pm 13.8 9.2 -1.4 35 6.1 W 13 28 7 15 1005.5 - 0.0
01/04:00pm 14.4 6.0 -2.1 32 6.6 WNW 32 44 17 24 1004.9 - 0.0
01/03:30pm 15.1 6.8 -1.9 31 6.9 WNW 32 46 17 25 1004.1 - 0.0
01/03:05pm 15.7 7.7 -2.7 28 7.4 W 30 48 16 26 1003.6 - 0.0
01/03:00pm 15.5 6.7 -3.9 26 7.6 WNW 33 48 18 26 1003.6 1003.6 0.0
01/02:30pm 15.8 7.8 -2.6 28 7.4 WNW 30 48 16 26 1002.8 - 0.0
01/02:22pm 15.4 7.6 -3.5 27 7.4 WNW 28 46 15 25 1002.9 - 0.0
01/02:00pm 15.7 8.3 -3.7 26 7.6 WNW 26 41 14 22 1002.8 - 0.0
01/01:30pm 16.3 10.0 -3.7 25 7.9 W 20 37 11 20 1002.5 - 0.0
01/01:04pm 16.0 7.7 -5.1 23 8.1 W 30 48 16 26 1002.7 - 0.0
01/01:00pm 16.1 8.6 -5.0 23 8.1 W 26 44 14 24 1002.6 - 0.0
01/12:30pm 16.4 11.2 -3.1 26 7.8 NW 15 32 8 17 1002.5 - 0.0
01/12:00pm 15.8 12.6 -3.6 26 7.7 N 4 19 2 10 1002.8 1002.8 0.0
01/11:30am 15.6 11.7 -4.3 25 7.7 NNE 7 11 4 6 1003.1 - 0.0
01/11:00am 15.2 12.0 -3.6 27 7.3 SSE 4 7 2 4 1003.1 - 0.0
01/10:30am 14.2 9.6 -4.0 28 7.0 WNW 11 20 6 11 1003.1 - 0.0
01/10:00am 13.7 7.8 -1.9 34 6.2 NW 19 26 10 14 1003.2 - 0.0
01/09:30am 13.0 9.3 -0.3 40 5.5 NW 9 15 5 8 1003.6 - 0.0
01/09:00am 12.0 10.0 2.5 52 4.1 WSW 2 9 1 5 1003.8 1003.8 0.2
01/08:30am 9.6 8.3 4.0 68 2.5 CALM 0 0 0 0 1003.8 - 0.2
01/08:00am 5.5 4.2 4.2 91 0.6 CALM 0 0 0 0 1003.5 - 0.2
01/07:30am 3.8 2.3 2.9 94 0.4 CALM 0 0 0 0 1003.2 - 0.2
01/07:00am 3.0 1.2 1.5 90 0.6 CALM 0 0 0 0 1002.6 - 0.0
01/06:30am 4.6 3.2 3.4 92 0.5 CALM 0 0 0 0 1002.6 - 0.0
01/06:00am 5.1 3.3 3.3 88 0.7 SSW 2 9 1 5 1002.4 1002.4 0.0
01/05:30am 6.7 3.9 5.0 89 0.7 NW 9 13 5 7 1002.0 - 0.0
01/05:00am 6.8 3.9 4.6 86 1.0 NW 9 15 5 8 1001.9 - 0.0
01/04:30am 7.4 4.9 5.0 85 1.1 N 7 11 4 6 1001.8 - 0.0
01/04:00am 8.1 5.8 4.9 80 1.4 WSW 6 20 3 11 1002.4 - 0.0
01/03:30am 8.9 3.9 3.7 70 2.3 SW 19 28 10 15 1001.8 - 0.0
01/03:00am 8.9 4.3 3.9 71 2.2 SSW 17 26 9 14 1001.5 1001.5 0.0
01/02:30am 8.9 4.8 4.5 74 1.9 SSW 15 26 8 14 1001.6 - 0.0
01/02:00am 8.7 5.4 4.3 74 1.9 S 11 17 6 9 1001.2 - 0.0
01/01:30am 9.5 5.9 4.9 73 2.1 S 13 22 7 12 1000.9 - 0.0
01/01:00am 9.9 6.7 5.3 73 2.1 S 11 19 6 10 1000.4 - 0.0
01/12:30am 10.5 7.3 5.1 69 2.4 SSE 11 22 6 12 1000.3 - 0.0
01/12:00am 11.4 8.6 5.3 66 2.8 SSW 9 15 5 8 999.8 999.8 0.0
 
Date/Time
EST
Temp
°C
App
Temp
°C
Dew
Point
Rel
Hum
%
Delta-T
°C
Wind Press
QNH
hPa
Press
MSL
hPa
Rain
since 9 am
mm
Dir
 
Spd
km/h
Gust
km/h
Spd
kts
Gust
kts
31/11:30pm 12.6 8.1 6.2 65 3.0 SSE 19 28 10 15 999.3 - 0.0
31/11:00pm 12.9 11.1 1.3 45 4.9 CALM 0 0 0 0 998.8 - 0.0
31/10:30pm 15.5 11.5 0.5 36 6.4 NNW 11 13 6 7 998.6 - 0.0
31/10:00pm 16.3 12.0 1.2 36 6.6 NNW 13 20 7 11 998.5 - 0.0
31/09:30pm 17.2 12.1 0.8 33 7.2 NW 17 20 9 11 998.6 - 0.0
31/09:00pm 17.6 12.4 0.3 31 7.6 NW 17 22 9 12 998.8 998.8 0.0
31/08:30pm 18.2 12.7 0.4 30 7.8 NW 19 26 10 14 998.8 - 0.0
31/08:00pm 18.7 12.2 0.3 29 8.1 WNW 24 39 13 21 998.7 - 0.0
31/07:30pm 18.2 12.8 1.3 32 7.5 NW 19 30 10 16 998.6 - 0.0
31/07:00pm 18.4 12.8 1.4 32 7.6 WNW 20 35 11 19 998.3 - 0.0
31/06:30pm 19.2 12.2 1.7 31 7.9 NW 28 43 15 23 997.7 - 0.0
31/06:00pm 19.6 12.5 1.1 29 8.4 NW 28 39 15 21 997.0 997.0 0.0
31/05:30pm 20.1 12.0 1.0 28 8.6 NW 33 54 18 29 996.5 - 0.0
31/05:05pm 20.9 12.8 -0.4 24 9.4 NW 32 54 17 29 996.2 - 0.0
31/05:00pm 20.9 12.9 0.2 25 9.2 NW 32 48 17 26 996.2 - 0.0
31/04:33pm 22.0 13.8 -1.3 21 10.2 NW 32 54 17 29 996.1 - 0.0
31/04:30pm 21.8 14.3 0.9 25 9.5 NW 30 46 16 25 996.1 - 0.0
31/04:28pm 21.8 14.4 -0.8 22 10.0 NW 28 46 15 25 996.0 - 0.0
31/04:00pm 22.6 15.8 1.0 24 9.9 NW 26 35 14 19 996.5 - 0.0
31/03:46pm 22.9 15.6 0.1 22 10.3 NW 28 46 15 25 996.7 - 0.0
31/03:30pm 22.9 16.2 1.3 24 10.0 NW 26 44 14 24 996.8 - 0.0
31/03:03pm 23.2 16.1 1.5 24 10.1 NW 28 46 15 25 996.8 - 0.0
31/03:00pm 23.1 15.7 2.0 25 10.0 NW 30 46 16 25 996.8 996.8 0.0
31/02:30pm 23.0 14.5 0.8 23 10.2 NW 35 59 19 32 997.3 - 0.0
31/02:00pm 22.6 11.2 0.4 23 10.1 NW 50 80 27 43 997.8 - 0.0
31/01:30pm 22.7 12.1 1.1 24 10.0 NW 46 74 25 40 998.3 - 0.0
31/01:00pm 22.9 13.9 2.4 26 9.7 NW 39 59 21 32 999.4 - 0.0
31/12:32pm 22.9 12.4 1.3 24 10.0 NW 46 65 25 35 1000.0 - 0.0
31/12:30pm 22.8 11.5 1.2 24 10.0 NW 50 65 27 35 1000.0 - 0.0
31/12:10pm 23.0 16.0 1.9 25 9.9 NW 28 57 15 31 1000.6 - 0.0
31/12:00pm 23.2 18.0 3.7 28 9.5 NNW 20 33 11 18 1000.8 1000.8 0.0
31/11:30am 22.4 14.9 3.5 29 9.1 NW 32 44 17 24 1001.8 - 0.0
31/11:00am 22.2 18.5 4.7 32 8.6 N 13 28 7 15 1002.9 - 0.0
31/10:30am 20.7 16.0 5.1 36 7.7 N 19 33 10 18 1003.5 - 0.0
31/10:00am 18.4 14.5 6.9 47 5.8 ENE 17 22 9 12 1004.0 - 0.0
31/09:30am 16.2 13.5 7.2 55 4.5 NNE 11 20 6 11 1004.5 - 0.0
31/09:29am 16.2 13.5 7.4 56 4.4 NNE 11 20 6 11 1004.5 - 0.0
31/09:00am 11.2 10.9 8.8 85 1.2 CALM 0 0 0 0 1005.1 1005.1 0.0
31/08:30am 8.1 7.4 7.0 93 0.5 CALM 0 0 0 0 1005.7 - 0.0
31/08:00am 6.0 5.0 5.4 96 0.3 CALM 0 0 0 0 1006.1 - 0.0
31/07:30am 4.2 2.8 3.5 95 0.3 CALM 0 0 0 0 1006.4 - 0.0
31/07:00am 4.6 3.3 3.9 95 0.3 CALM 0 0 0 0 1006.5 - 0.0
31/06:30am 4.5 3.1 3.8 95 0.3 CALM 0 0 0 0 1006.8 - 0.0
31/06:00am 4.4 3.0 3.7 95 0.3 CALM 0 0 0 0 1007.0 1007.0 0.0
31/05:30am 4.7 3.4 4.0 95 0.3 CALM 0 0 0 0 1007.0 - 0.0
31/05:00am 4.7 3.3 3.8 94 0.4 CALM 0 0 0 0 1007.3 - 0.0
31/04:30am 5.0 3.7 4.1 94 0.4 CALM 0 0 0 0 1007.6 - 0.0
31/04:00am 5.0 3.7 4.1 94 0.4 CALM 0 0 0 0 1007.9 - 0.0
31/03:30am 5.6 3.1 4.7 94 0.4 SW 7 15 4 8 1008.1 - 0.0
31/03:00am 5.4 4.1 4.2 92 0.5 CALM 0 0 0 0 1008.4 1008.4 0.0
31/02:30am 5.7 3.4 4.7 93 0.4 SW 6 9 3 5 1008.8 - 0.0
31/02:00am 5.1 3.8 3.9 92 0.5 CALM 0 4 0 2 1009.0 - 0.0
31/01:30am 6.0 3.7 4.6 91 0.6 SW 6 7 3 4 1009.3 - 0.0
31/01:00am 6.8 5.4 5.6 92 0.5 SSW 2 11 1 6 1009.5 - 0.0
31/12:30am 6.3 5.1 4.6 89 0.7 CALM 0 0 0 0 1009.6 - 0.0
31/12:00am 7.1 6.0 5.3 88 0.8 CALM 0 0 0 0 1010.0 1010.0 0.0
 
Date/Time
EST
Temp
°C
App
Temp
°C
Dew
Point
Rel
Hum
%
Delta-T
°C
Wind Press
QNH
hPa
Press
MSL
hPa
Rain
since 9 am
mm
Dir
 
Spd
km/h
Gust
km/h
Spd
kts
Gust
kts
30/11:30pm 8.1 5.7 5.4 83 1.2 S 7 11 4 6 1010.2 - 0.0
30/11:00pm 8.0 5.4 6.1 88 0.9 S 9 13 5 7 1010.4 - 0.0
30/10:30pm 7.7 6.0 6.0 89 0.8 SSW 4 7 2 4 1010.5 - 0.0
30/10:00pm 8.6 6.7 6.9 89 0.8 NW 6 11 3 6 1010.7 - 0.0
30/09:30pm 8.9 7.3 6.3 84 1.2 W 4 7 2 4 1011.1 - 0.0
30/09:00pm 9.7 6.9 7.0 83 1.3 NW 11 15 6 8 1011.0 1011.0 0.0
30/08:30pm 10.3 8.1 7.7 84 1.2 NW 9 13 5 7 1011.1 - 0.0
30/08:00pm 10.4 8.4 6.9 79 1.7 NW 7 9 4 5 1011.2 - 0.0
30/07:30pm 11.1 9.3 8.1 82 1.5 NNW 7 11 4 6 1011.2 - 0.0
30/07:00pm 11.5 9.8 8.5 82 1.5 NW 7 11 4 6 1010.9 - 0.0
30/06:30pm 11.5 9.8 7.4 76 2.0 NW 6 9 3 5 1010.7 - 0.0
30/06:00pm 13.1 11.2 7.5 69 2.7 NNW 7 11 4 6 1010.6 1010.6 0.0
30/05:30pm 14.8 13.0 8.1 64 3.4 NNW 7 9 4 5 1010.3 - 0.0
30/05:00pm 17.4 14.9 8.0 54 4.8 NW 11 13 6 7 1009.9 - 0.0
30/04:30pm 19.9 16.5 5.9 40 6.9 W 13 17 7 9 1009.6 - 0.0

Other Formats:

Comma delimited format used in spreadsheet applications
http://www.bom.gov.au/fwo/IDN60801/IDN60801.95929.axf

JavaScript Object Notation format (JSON) in row-major order
http://www.bom.gov.au/fwo/IDN60801/IDN60801.95929.json